Batavia, NY

5:00 AM EDT on September 17, 2014 (GMT -0400)
Violet Ln. | Change Station
CLOSE
Current Station
Personal Weather Station
Location: Batavia, NY
Elevation: 893 ft
Nearby Weather Stations

Elev 893 ft 43.01 °N, 78.15 °W | Updated 25 seconds ago

Partly Cloudy
Partly Cloudy
45.1 °F
Feels Like 45 °F
N
2.7
Wind Variable Wind from SW
Gusts 4.0 mph

Today
High -- | Low -- °F
--% Chance of Precip.
Yesterday
High -- | Low -- °F
Precip. -- in
6:54 AM 7:18 PM
Last Quarter, 38% visible
Pressure 30.06 in
Visibility 10.0 miles
Clouds Few 7000 ft
Few 25000 ft
Windchill 45 °F
Dew Point 39 °F
Humidity 80%
Rainfall 0.00 in
Snow Depth Not available.
UV 0 out of 12
Pollen 2.10 out of 12
Ozone Good
PM2.5 Good
Flu Activity Not available.
METAR KROC 170854Z 24005KT 10SM FEW070 FEW250 08/07 A3005 RMK AO2 SLP179 T00780067 58000

More Conditions Fewer Conditions

Pressure 30.06 in
Visibility 10.0 miles
Clouds Few 7000 ft
Few 25000 ft
Windchill 45 °F
Dew Point 39 °F
Humidity 80%
Rainfall 0.00 in
Snow Depth Not available.
UV 0 out of 12
Pollen 2.10 out of 12
Ozone Good
PM2.5 Good
Flu Activity Not available.
METAR KROC 170854Z 24005KT 10SM FEW070 FEW250 08/07 A3005 RMK AO2 SLP179 T00780067 58000

More Conditions Fewer Conditions

10-Day Weather Forecast

Almanac

Astronomy

Sep. 17, 2014 Rise Set
Actual Time 6:54 AM EDT 7:18 PM EDT
Civil Twilight 6:25 AM EDT 7:47 PM EDT
Nautical Twilight 5:52 AM EDT 8:20 PM EDT
Astronomical Twilight 5:17 AM EDT 8:55 PM EDT
Moon 12:46 AM EDT 3:33 PM EDT
Length of Visible Light 13h 21m
Length of Day
12h 24m
Tomorrow will be 2m 53s shorter.
Last Quarter, 38% of the Moon is Illuminated
Today
Last Quarter
Sep 24
New
Oct 1
First Quarter
Oct 8
Full
Oct 15
Last Quarter

Today's Extremes

State Highs State Lows

Community

WunderPhotos

Upload Photos

1,753,991 photos uploaded!

Nearby

Air Quality

  Air Quality AQ Index Pollutant
Yesterday Good
OZONE
Yesterday Good
PM2.5
Current Good
PM2.5
Current Good
OZONE
Wednesday Good
PM2.5
Wednesday Good
OZONE

Snow Depth

Station Depth Elevation
No new snow has been reported.

Earthquake Activity

City Distance Mag. Time & Date
No recent earthquake activity has been reported nearby.
Minimum magnitude displayed is 2.5.

Coastal Water Temperatures

Place Temperature
Buffalo, NY 68.0 °F

Nearby Weather Stations